JZA8261 CYYZ-CYXU
Flight info
| Callsign | JZA8261 |
|---|---|
| Flight time | 0h 25m |
| Altitude | 8000 |
| Route | PEMBA6 DERLO |
| Aircraft | DH8A/M-VGDW/C |
Departure
| Time | 2026-05-08 01:16 |
|---|---|
| Airport | Toronto Pearson International Airport (CYYZ) |
Arrival
| Time | 2026-05-08 01:42 |
|---|---|
| Airport | London International Airport (CYXU) |
| Time | Latitude | Longitude | Altitude | Speed | Heading |
|---|---|---|---|---|---|
| 2026-05-08 00:56 | 43.68297 | -79.61543 | 575 ft | 0 kts | 219° |
| 2026-05-08 01:08 | 43.68296 | -79.61543 | 575 ft | 0 kts | 219° |
| 2026-05-08 01:08 | 43.68320 | -79.61550 | 575 ft | 8 kts | 22° |
| 2026-05-08 01:08 | 43.68377 | -79.61554 | 575 ft | 14 kts | 310° |
| 2026-05-08 01:08 | 43.68396 | -79.61708 | 575 ft | 14 kts | 239° |
| 2026-05-08 01:09 | 43.68342 | -79.61783 | 575 ft | 17 kts | 218° |
| 2026-05-08 01:09 | 43.68236 | -79.61843 | 575 ft | 9 kts | 179° |
| 2026-05-08 01:09 | 43.68154 | -79.61864 | 575 ft | 19 kts | 211° |
| 2026-05-08 01:09 | 43.68070 | -79.61978 | 575 ft | 6 kts | 221° |
| 2026-05-08 01:10 | 43.68039 | -79.61998 | 575 ft | 13 kts | 178° |
| 2026-05-08 01:10 | 43.67973 | -79.62007 | 575 ft | 8 kts | 248° |
| 2026-05-08 01:10 | 43.67957 | -79.62090 | 575 ft | 6 kts | 314° |
| 2026-05-08 01:10 | 43.68024 | -79.62165 | 575 ft | 17 kts | 316° |
| 2026-05-08 01:11 | 43.68097 | -79.62254 | 575 ft | 14 kts | 315° |
| 2026-05-08 01:11 | 43.68158 | -79.62339 | 575 ft | 7 kts | 313° |
| 2026-05-08 01:11 | 43.68219 | -79.62421 | 575 ft | 20 kts | 317° |
| 2026-05-08 01:11 | 43.68327 | -79.62556 | 575 ft | 20 kts | 314° |
| 2026-05-08 01:12 | 43.68405 | -79.62657 | 575 ft | 9 kts | 310° |
| 2026-05-08 01:12 | 43.68480 | -79.62761 | 575 ft | 22 kts | 317° |
| 2026-05-08 01:12 | 43.68592 | -79.62901 | 575 ft | 21 kts | 316° |
| 2026-05-08 01:12 | 43.68683 | -79.63021 | 575 ft | 20 kts | 316° |
| 2026-05-08 01:13 | 43.68805 | -79.63182 | 575 ft | 28 kts | 316° |
| 2026-05-08 01:13 | 43.68932 | -79.63341 | 575 ft | 19 kts | 319° |
| 2026-05-08 01:13 | 43.68992 | -79.63424 | 575 ft | 6 kts | 317° |
| 2026-05-08 01:13 | 43.69075 | -79.63529 | 575 ft | 18 kts | 329° |
| 2026-05-08 01:14 | 43.69175 | -79.63451 | 575 ft | 13 kts | 38° |
| 2026-05-08 01:14 | 43.69248 | -79.63417 | 575 ft | 18 kts | 9° |
| 2026-05-08 01:14 | 43.69291 | -79.63412 | 575 ft | 13 kts | 5° |
| 2026-05-08 01:14 | 43.69314 | -79.63412 | 575 ft | 0 kts | 332° |
| 2026-05-08 01:15 | 43.69339 | -79.63432 | 575 ft | 14 kts | 324° |
| 2026-05-08 01:15 | 43.69390 | -79.63517 | 575 ft | 17 kts | 269° |
| 2026-05-08 01:15 | 43.69160 | -79.63881 | 575 ft | 104 kts | 225° |
| 2026-05-08 01:16 | 43.68438 | -79.64914 | 600 ft | 179 kts | 226° |
| 2026-05-08 01:16 | 43.67839 | -79.65767 | 1004 ft | 187 kts | 226° |
| 2026-05-08 01:16 | 43.66930 | -79.68000 | 1658 ft | 214 kts | 256° |
| 2026-05-08 01:16 | 43.66875 | -79.70071 | 2139 ft | 220 kts | 273° |
| 2026-05-08 01:17 | 43.66979 | -79.71506 | 2454 ft | 224 kts | 278° |
| 2026-05-08 01:17 | 43.67188 | -79.73647 | 2857 ft | 233 kts | 279° |
| 2026-05-08 01:17 | 43.67429 | -79.75967 | 2974 ft | 248 kts | 280° |
| 2026-05-08 01:17 | 43.67681 | -79.78330 | 3219 ft | 246 kts | 280° |
| 2026-05-08 01:18 | 43.67924 | -79.80545 | 3464 ft | 231 kts | 280° |
| 2026-05-08 01:18 | 43.68196 | -79.82707 | 3709 ft | 226 kts | 282° |
| 2026-05-08 01:18 | 43.68490 | -79.84820 | 3958 ft | 223 kts | 282° |
| 2026-05-08 01:18 | 43.68793 | -79.86910 | 4210 ft | 221 kts | 282° |
| 2026-05-08 01:19 | 43.69102 | -79.89017 | 4461 ft | 221 kts | 282° |
| 2026-05-08 01:19 | 43.69407 | -79.91066 | 4709 ft | 220 kts | 283° |
| 2026-05-08 01:19 | 43.69485 | -79.93197 | 4964 ft | 221 kts | 263° |
| 2026-05-08 01:19 | 43.68889 | -79.95114 | 5245 ft | 223 kts | 238° |
| 2026-05-08 01:20 | 43.67688 | -79.96520 | 5528 ft | 229 kts | 212° |
| 2026-05-08 01:20 | 43.66125 | -79.97248 | 5825 ft | 245 kts | 197° |
| 2026-05-08 01:20 | 43.64420 | -79.97707 | 6096 ft | 253 kts | 193° |
| 2026-05-08 01:20 | 43.62667 | -79.98118 | 6353 ft | 257 kts | 193° |
| 2026-05-08 01:21 | 43.60894 | -79.98567 | 6608 ft | 259 kts | 194° |
| 2026-05-08 01:21 | 43.59129 | -79.99082 | 6868 ft | 260 kts | 196° |
| 2026-05-08 01:21 | 43.57367 | -79.99659 | 7121 ft | 260 kts | 197° |
| 2026-05-08 01:21 | 43.55614 | -80.00305 | 7376 ft | 260 kts | 200° |
| 2026-05-08 01:22 | 43.53972 | -80.01290 | 7640 ft | 255 kts | 214° |
| 2026-05-08 01:22 | 43.52574 | -80.02772 | 7860 ft | 255 kts | 224° |
| 2026-05-08 01:22 | 43.51288 | -80.04472 | 7960 ft | 258 kts | 228° |
| 2026-05-08 01:22 | 43.50031 | -80.06259 | 7980 ft | 261 kts | 229° |
| 2026-05-08 01:23 | 43.48825 | -80.08033 | 7983 ft | 246 kts | 230° |
| 2026-05-08 01:23 | 43.47682 | -80.09738 | 7978 ft | 240 kts | 230° |
| 2026-05-08 01:23 | 43.46556 | -80.11419 | 7983 ft | 238 kts | 231° |
| 2026-05-08 01:23 | 43.45437 | -80.13091 | 7980 ft | 236 kts | 231° |
| 2026-05-08 01:24 | 43.44330 | -80.14750 | 7983 ft | 235 kts | 231° |
| 2026-05-08 01:24 | 43.43228 | -80.16399 | 7981 ft | 235 kts | 231° |
| 2026-05-08 01:24 | 43.42118 | -80.18055 | 7983 ft | 235 kts | 231° |
| 2026-05-08 01:24 | 43.41016 | -80.19706 | 7981 ft | 235 kts | 231° |
| 2026-05-08 01:25 | 43.39913 | -80.21365 | 7982 ft | 234 kts | 231° |
| 2026-05-08 01:25 | 43.38818 | -80.23023 | 7992 ft | 234 kts | 232° |
| 2026-05-08 01:25 | 43.37764 | -80.24715 | 7983 ft | 234 kts | 233° |
| 2026-05-08 01:25 | 43.36720 | -80.26433 | 7983 ft | 234 kts | 234° |
| 2026-05-08 01:26 | 43.35696 | -80.28133 | 7981 ft | 233 kts | 234° |
| 2026-05-08 01:26 | 43.34663 | -80.29853 | 7982 ft | 233 kts | 234° |
| 2026-05-08 01:26 | 43.33630 | -80.31567 | 7983 ft | 232 kts | 234° |
| 2026-05-08 01:26 | 43.32601 | -80.33277 | 7981 ft | 232 kts | 234° |
| 2026-05-08 01:27 | 43.31570 | -80.34989 | 7986 ft | 233 kts | 234° |
| 2026-05-08 01:27 | 43.30535 | -80.36704 | 7981 ft | 233 kts | 234° |
| 2026-05-08 01:27 | 43.29504 | -80.38419 | 7983 ft | 233 kts | 234° |
| 2026-05-08 01:27 | 43.28482 | -80.40144 | 7981 ft | 232 kts | 234° |
| 2026-05-08 01:28 | 43.27488 | -80.41838 | 7986 ft | 227 kts | 234° |
| 2026-05-08 01:28 | 43.26500 | -80.43514 | 7987 ft | 222 kts | 235° |
| 2026-05-08 01:28 | 43.25534 | -80.45152 | 7982 ft | 219 kts | 235° |
| 2026-05-08 01:28 | 43.24579 | -80.46764 | 7987 ft | 216 kts | 235° |
| 2026-05-08 01:29 | 43.23631 | -80.48360 | 7985 ft | 215 kts | 235° |
| 2026-05-08 01:29 | 43.22680 | -80.49933 | 7990 ft | 214 kts | 234° |
| 2026-05-08 01:29 | 43.21723 | -80.51490 | 7989 ft | 213 kts | 234° |
| 2026-05-08 01:29 | 43.20771 | -80.53046 | 7988 ft | 213 kts | 234° |
| 2026-05-08 01:30 | 43.19817 | -80.54601 | 7986 ft | 213 kts | 234° |
| 2026-05-08 01:30 | 43.18880 | -80.56176 | 7988 ft | 212 kts | 236° |
| 2026-05-08 01:30 | 43.17963 | -80.57759 | 7990 ft | 211 kts | 236° |
| 2026-05-08 01:30 | 43.17051 | -80.59346 | 7989 ft | 214 kts | 236° |
| 2026-05-08 01:31 | 43.16138 | -80.60939 | 7988 ft | 217 kts | 236° |
| 2026-05-08 01:31 | 43.15198 | -80.62579 | 7992 ft | 220 kts | 236° |
| 2026-05-08 01:31 | 43.14249 | -80.64238 | 7989 ft | 222 kts | 236° |
| 2026-05-08 01:31 | 43.13464 | -80.66030 | 8002 ft | 221 kts | 249° |
| 2026-05-08 01:32 | 43.12952 | -80.68078 | 8001 ft | 233 kts | 256° |
| 2026-05-08 01:32 | 43.12562 | -80.70260 | 8011 ft | 238 kts | 259° |
| 2026-05-08 01:32 | 43.12224 | -80.72507 | 7999 ft | 242 kts | 260° |
| 2026-05-08 01:32 | 43.11910 | -80.74778 | 7995 ft | 244 kts | 261° |
| 2026-05-08 01:33 | 43.11592 | -80.77064 | 7995 ft | 241 kts | 261° |
| 2026-05-08 01:33 | 43.11287 | -80.79142 | 7938 ft | 206 kts | 260° |
| 2026-05-08 01:33 | 43.11012 | -80.80974 | 7698 ft | 189 kts | 261° |
| 2026-05-08 01:33 | 43.10758 | -80.82673 | 7470 ft | 176 kts | 261° |
| 2026-05-08 01:34 | 43.10488 | -80.84255 | 7227 ft | 168 kts | 255° |
| 2026-05-08 01:34 | 43.09773 | -80.85475 | 6999 ft | 169 kts | 221° |
| 2026-05-08 01:34 | 43.08632 | -80.85916 | 6803 ft | 172 kts | 191° |
| 2026-05-08 01:34 | 43.07454 | -80.86039 | 6603 ft | 165 kts | 197° |
| 2026-05-08 01:35 | 43.06333 | -80.86435 | 6413 ft | 185 kts | 204° |
| 2026-05-08 01:35 | 43.05051 | -80.86987 | 6228 ft | 213 kts | 203° |
| 2026-05-08 01:35 | 43.03574 | -80.87581 | 6024 ft | 228 kts | 201° |
| 2026-05-08 01:35 | 43.01998 | -80.88159 | 5821 ft | 238 kts | 199° |
| 2026-05-08 01:36 | 43.01036 | -80.88492 | 5686 ft | 242 kts | 199° |
| 2026-05-08 01:36 | 42.99404 | -80.89036 | 5470 ft | 247 kts | 198° |
| 2026-05-08 01:36 | 42.97774 | -80.89549 | 5238 ft | 225 kts | 197° |
| 2026-05-08 01:36 | 42.96437 | -80.90338 | 5020 ft | 203 kts | 218° |
| 2026-05-08 01:37 | 42.95397 | -80.91526 | 4820 ft | 188 kts | 226° |
| 2026-05-08 01:37 | 42.94468 | -80.92719 | 4589 ft | 178 kts | 228° |
| 2026-05-08 01:37 | 42.93597 | -80.93877 | 4345 ft | 173 kts | 229° |
| 2026-05-08 01:37 | 42.92757 | -80.95073 | 4051 ft | 174 kts | 234° |
| 2026-05-08 01:38 | 42.92354 | -80.96582 | 3745 ft | 170 kts | 267° |
| 2026-05-08 01:38 | 42.92657 | -80.98116 | 3483 ft | 169 kts | 296° |
| 2026-05-08 01:38 | 42.93306 | -80.99458 | 3222 ft | 169 kts | 304° |
| 2026-05-08 01:38 | 42.93994 | -81.00729 | 3066 ft | 163 kts | 305° |
| 2026-05-08 01:39 | 42.94664 | -81.01941 | 2916 ft | 159 kts | 305° |
| 2026-05-08 01:39 | 42.95335 | -81.03172 | 2671 ft | 165 kts | 305° |
| 2026-05-08 01:39 | 42.96026 | -81.04453 | 2431 ft | 170 kts | 306° |
| 2026-05-08 01:39 | 42.96730 | -81.05772 | 2194 ft | 173 kts | 306° |
| 2026-05-08 01:40 | 42.97441 | -81.07085 | 2058 ft | 170 kts | 309° |
| 2026-05-08 01:40 | 42.98214 | -81.08251 | 2004 ft | 164 kts | 314° |
| 2026-05-08 01:40 | 42.99019 | -81.09301 | 1979 ft | 155 kts | 318° |
| 2026-05-08 01:40 | 42.99794 | -81.10321 | 1745 ft | 159 kts | 317° |
| 2026-05-08 01:41 | 43.00569 | -81.11407 | 1540 ft | 157 kts | 315° |
| 2026-05-08 01:41 | 43.01305 | -81.12456 | 1394 ft | 148 kts | 317° |
| 2026-05-08 01:41 | 43.02013 | -81.13347 | 1203 ft | 129 kts | 317° |
| 2026-05-08 01:41 | 43.02655 | -81.14132 | 937 ft | 114 kts | 317° |
| 2026-05-08 01:42 | 43.03161 | -81.14755 | 918 ft | 69 kts | 319° |
| 2026-05-08 01:42 | 43.03300 | -81.14942 | 918 ft | 13 kts | 285° |
| 2026-05-08 01:42 | 43.03270 | -81.15024 | 918 ft | 10 kts | 226° |
| 2026-05-08 01:42 | 43.03253 | -81.15046 | 918 ft | 1 kts | 221° |
| 2026-05-08 01:43 | 43.03219 | -81.15126 | 918 ft | 10 kts | 312° |
| 2026-05-08 01:43 | 43.03295 | -81.15219 | 918 ft | 16 kts | 321° |
| 2026-05-08 01:43 | 43.03346 | -81.15280 | 918 ft | 6 kts | 318° |
| 2026-05-08 01:43 | 43.03378 | -81.15319 | 918 ft | 5 kts | 303° |
| 2026-05-08 01:44 | 43.03344 | -81.15297 | 918 ft | 15 kts | 113° |
| 2026-05-08 01:44 | 43.03284 | -81.15203 | 918 ft | 16 kts | 139° |
| 2026-05-08 01:44 | 43.03197 | -81.15104 | 918 ft | 9 kts | 139° |
| 2026-05-08 01:44 | 43.03106 | -81.14993 | 918 ft | 26 kts | 139° |
| 2026-05-08 01:45 | 43.02986 | -81.14855 | 918 ft | 11 kts | 143° |
| 2026-05-08 01:45 | 43.02929 | -81.14896 | 918 ft | 10 kts | 230° |
| 2026-05-08 01:45 | 43.02911 | -81.14924 | 918 ft | 0 kts | 228° |